sensor_id;sensor_type;location;lat;lon;timestamp;pressure;altitude;pressure_sealevel;temperature;humidity
34983;BME280;21187;50.976;13.720;2022-08-21T00:02:33;98209.81;;;21.22;65.36
34983;BME280;21187;50.976;13.720;2022-08-21T00:07:35;98210.19;;;21.24;65.46
34983;BME280;21187;50.976;13.720;2022-08-21T00:12:39;98201.66;;;21.18;65.39
34983;BME280;21187;50.976;13.720;2022-08-21T00:17:41;98209.41;;;21.23;65.59
34983;BME280;21187;50.976;13.720;2022-08-21T00:22:43;98208.88;;;21.32;65.29
34983;BME280;21187;50.976;13.720;2022-08-21T00:27:45;98197.41;;;21.34;64.93
34983;BME280;21187;50.976;13.720;2022-08-21T00:32:48;98200.59;;;21.32;65.13
34983;BME280;21187;50.976;13.720;2022-08-21T00:37:50;98196.28;;;21.31;65.14
34983;BME280;21187;50.976;13.720;2022-08-21T00:42:52;98198.22;;;21.34;65.16
34983;BME280;21187;50.976;13.720;2022-08-21T00:47:54;98203.56;;;21.41;64.98
34983;BME280;21187;50.976;13.720;2022-08-21T00:52:56;98205.13;;;21.42;65.01
34983;BME280;21187;50.976;13.720;2022-08-21T00:58:03;98202.66;;;21.48;64.97
34983;BME280;21187;50.976;13.720;2022-08-21T01:03:13;98192.78;;;21.51;64.85
34983;BME280;21187;50.976;13.720;2022-08-21T01:08:17;98198.66;;;21.53;64.75
34983;BME280;21187;50.976;13.720;2022-08-21T01:13:20;98197.81;;;21.56;64.63
34983;BME280;21187;50.976;13.720;2022-08-21T01:18:26;98195.59;;;21.47;64.91
34983;BME280;21187;50.976;13.720;2022-08-21T01:23:28;98206.00;;;21.39;65.09
34983;BME280;21187;50.976;13.720;2022-08-21T01:28:43;98217.41;;;21.38;65.27
34983;BME280;21187;50.976;13.720;2022-08-21T01:33:45;98226.91;;;21.37;65.05
34983;BME280;21187;50.976;13.720;2022-08-21T01:38:47;98220.25;;;21.34;65.00
34983;BME280;21187;50.976;13.720;2022-08-21T01:43:50;98220.25;;;21.34;64.88
34983;BME280;21187;50.976;13.720;2022-08-21T01:48:52;98232.19;;;21.27;64.83
34983;BME280;21187;50.976;13.720;2022-08-21T01:53:54;98233.44;;;21.23;64.84
34983;BME280;21187;50.976;13.720;2022-08-21T01:58:55;98237.03;;;21.20;64.71
34983;BME280;21187;50.976;13.720;2022-08-21T02:03:57;98233.47;;;21.19;64.56
34983;BME280;21187;50.976;13.720;2022-08-21T02:09:04;98229.97;;;21.19;64.58
34983;BME280;21187;50.976;13.720;2022-08-21T02:14:11;98220.84;;;21.22;64.33
34983;BME280;21187;50.976;13.720;2022-08-21T02:19:15;98222.06;;;21.21;64.10
34983;BME280;21187;50.976;13.720;2022-08-21T02:24:17;98221.28;;;21.20;64.14
34983;BME280;21187;50.976;13.720;2022-08-21T02:29:19;98224.06;;;21.17;64.18
34983;BME280;21187;50.976;13.720;2022-08-21T02:34:21;98208.78;;;21.16;63.98
34983;BME280;21187;50.976;13.720;2022-08-21T02:39:29;98216.91;;;21.23;63.96
34983;BME280;21187;50.976;13.720;2022-08-21T02:44:31;98217.28;;;21.25;63.72
34983;BME280;21187;50.976;13.720;2022-08-21T02:49:35;98213.50;;;21.15;63.48
34983;BME280;21187;50.976;13.720;2022-08-21T02:54:37;98218.47;;;21.00;63.95
34983;BME280;21187;50.976;13.720;2022-08-21T02:59:39;98209.91;;;20.94;64.14
34983;BME280;21187;50.976;13.720;2022-08-21T03:04:42;98212.97;;;21.00;63.95
34983;BME280;21187;50.976;13.720;2022-08-21T03:09:47;98209.72;;;21.05;63.85
34983;BME280;21187;50.976;13.720;2022-08-21T03:14:56;98215.91;;;21.13;63.83
34983;BME280;21187;50.976;13.720;2022-08-21T03:19:59;98205.31;;;21.11;63.71
34983;BME280;21187;50.976;13.720;2022-08-21T03:25:02;98211.94;;;21.14;63.76
34983;BME280;21187;50.976;13.720;2022-08-21T03:30:08;98201.34;;;21.13;63.79
34983;BME280;21187;50.976;13.720;2022-08-21T03:35:11;98203.44;;;21.05;63.67
34983;BME280;21187;50.976;13.720;2022-08-21T03:40:16;98200.53;;;20.92;nan
34983;BME280;21187;50.976;13.720;2022-08-21T03:45:19;98214.03;;;20.83;64.19
34983;BME280;21187;50.976;13.720;2022-08-21T03:50:23;98234.38;;;20.89;64.35
34983;BME280;21187;50.976;13.720;2022-08-21T03:55:26;98244.44;;;20.99;64.07
34983;BME280;21187;50.976;13.720;2022-08-21T04:00:28;98246.72;;;21.04;63.78
34983;BME280;21187;50.976;13.720;2022-08-21T04:05:30;98241.59;;;21.06;63.77
34983;BME280;21187;50.976;13.720;2022-08-21T04:10:35;98242.41;;;21.03;63.53
34983;BME280;21187;50.976;13.720;2022-08-21T04:15:38;98247.56;;;21.01;63.65
34983;BME280;21187;50.976;13.720;2022-08-21T04:20:42;98233.22;;;20.86;63.94
34983;BME280;21187;50.976;13.720;2022-08-21T04:25:51;98235.16;;;20.62;64.63
34983;BME280;21187;50.976;13.720;2022-08-21T04:30:55;98239.38;;;20.70;64.44
34983;BME280;21187;50.976;13.720;2022-08-21T04:35:57;98250.16;;;20.85;64.07
34983;BME280;21187;50.976;13.720;2022-08-21T04:40:58;98246.09;;;20.93;63.91
34983;BME280;21187;50.976;13.720;2022-08-21T04:46:01;98246.84;;;20.97;63.98
34983;BME280;21187;50.976;13.720;2022-08-21T04:51:22;98242.16;;;20.94;64.01
34983;BME280;21187;50.976;13.720;2022-08-21T04:56:35;98246.22;;;20.86;64.21
34983;BME280;21187;50.976;13.720;2022-08-21T05:01:38;98252.50;;;20.86;64.29
34983;BME280;21187;50.976;13.720;2022-08-21T05:06:43;98260.97;;;20.99;64.32
34983;BME280;21187;50.976;13.720;2022-08-21T05:11:48;98264.75;;;21.09;64.16
34983;BME280;21187;50.976;13.720;2022-08-21T05:16:50;98257.22;;;21.13;64.24
34983;BME280;21187;50.976;13.720;2022-08-21T05:21:52;98255.59;;;21.16;64.22
34983;BME280;21187;50.976;13.720;2022-08-21T05:26:54;98256.31;;;21.20;64.32
34983;BME280;21187;50.976;13.720;2022-08-21T05:31:56;98262.28;;;21.15;64.46
34983;BME280;21187;50.976;13.720;2022-08-21T05:36:58;98261.50;;;21.14;64.55
34983;BME280;21187;50.976;13.720;2022-08-21T05:42:06;98268.50;;;21.19;64.83
34983;BME280;21187;50.976;13.720;2022-08-21T05:47:09;98246.72;;;21.28;64.69
34983;BME280;21187;50.976;13.720;2022-08-21T05:52:12;98246.56;;;21.35;64.54
34983;BME280;21187;50.976;13.720;2022-08-21T05:57:14;98254.84;;;21.35;64.77
34983;BME280;21187;50.976;13.720;2022-08-21T06:02:20;98255.88;;;21.45;64.76
34983;BME280;21187;50.976;13.720;2022-08-21T06:07:22;98259.38;;;21.45;64.72
34983;BME280;21187;50.976;13.720;2022-08-21T06:12:23;98266.41;;;21.50;64.58
34983;BME280;21187;50.976;13.720;2022-08-21T06:17:26;98276.19;;;21.55;64.64
34983;BME280;21187;50.976;13.720;2022-08-21T06:22:29;98271.25;;;21.42;65.23
34983;BME280;21187;50.976;13.720;2022-08-21T06:27:30;98265.59;;;21.50;65.16
34983;BME280;21187;50.976;13.720;2022-08-21T06:32:32;98268.72;;;21.55;64.89
34983;BME280;21187;50.976;13.720;2022-08-21T06:37:34;98265.56;;;21.53;65.02
34983;BME280;21187;50.976;13.720;2022-08-21T06:42:36;98263.63;;;21.54;64.98
34983;BME280;21187;50.976;13.720;2022-08-21T06:47:42;98270.63;;;21.58;65.03
34983;BME280;21187;50.976;13.720;2022-08-21T06:52:43;98266.94;;;21.65;64.76
34983;BME280;21187;50.976;13.720;2022-08-21T06:57:45;98257.41;;;21.70;64.82
34983;BME280;21187;50.976;13.720;2022-08-21T07:02:53;98259.59;;;21.78;64.79
34983;BME280;21187;50.976;13.720;2022-08-21T07:07:56;98254.66;;;21.90;64.61
34983;BME280;21187;50.976;13.720;2022-08-21T07:12:58;98256.50;;;21.97;64.59
34983;BME280;21187;50.976;13.720;2022-08-21T07:18:02;98267.97;;;21.95;64.74
34983;BME280;21187;50.976;13.720;2022-08-21T07:23:08;98256.00;;;22.02;64.55
34983;BME280;21187;50.976;13.720;2022-08-21T07:28:10;98267.09;;;21.98;64.29
34983;BME280;21187;50.976;13.720;2022-08-21T07:33:12;98267.09;;;21.98;64.40
34983;BME280;21187;50.976;13.720;2022-08-21T07:38:14;98274.03;;;22.06;64.24
34983;BME280;21187;50.976;13.720;2022-08-21T07:43:17;98281.81;;;22.11;64.15
34983;BME280;21187;50.976;13.720;2022-08-21T07:48:20;98274.22;;;22.16;64.43
34983;BME280;21187;50.976;13.720;2022-08-21T07:53:22;98280.59;;;22.13;64.09
34983;BME280;21187;50.976;13.720;2022-08-21T07:58:24;98287.31;;;22.11;64.14
34983;BME280;21187;50.976;13.720;2022-08-21T08:03:26;98299.91;;;22.13;64.11
34983;BME280;21187;50.976;13.720;2022-08-21T08:08:30;98291.91;;;22.18;63.91
34983;BME280;21187;50.976;13.720;2022-08-21T08:13:38;98292.97;;;22.24;63.85
34983;BME280;21187;50.976;13.720;2022-08-21T08:18:40;98301.19;;;22.28;63.78
34983;BME280;21187;50.976;13.720;2022-08-21T08:23:43;98298.75;;;22.30;63.54
34983;BME280;21187;50.976;13.720;2022-08-21T08:28:46;98304.97;;;22.34;63.28
34983;BME280;21187;50.976;13.720;2022-08-21T08:33:49;98304.88;;;22.41;63.13
34983;BME280;21187;50.976;13.720;2022-08-21T08:38:51;98311.25;;;22.38;63.13
34983;BME280;21187;50.976;13.720;2022-08-21T08:43:59;98304.09;;;22.41;62.92
34983;BME280;21187;50.976;13.720;2022-08-21T08:54:31;98300.06;;;22.46;62.85
34983;BME280;21187;50.976;13.720;2022-08-21T08:59:43;98310.53;;;22.54;62.52
34983;BME280;21187;50.976;13.720;2022-08-21T09:04:47;98309.16;;;22.63;62.52
34983;BME280;21187;50.976;13.720;2022-08-21T09:10:13;98303.72;;;22.59;62.17
34983;BME280;21187;50.976;13.720;2022-08-21T09:15:32;98308.53;;;22.55;62.60
34983;BME280;21187;50.976;13.720;2022-08-21T09:20:54;98294.06;;;22.67;62.32
34983;BME280;21187;50.976;13.720;2022-08-21T09:26:11;98290.28;;;22.77;61.04
34983;BME280;21187;50.976;13.720;2022-08-21T09:31:30;98289.50;;;22.77;61.08
34983;BME280;21187;50.976;13.720;2022-08-21T09:36:42;98286.88;;;22.90;59.85
34983;BME280;21187;50.976;13.720;2022-08-21T09:41:44;98295.66;;;23.01;59.69
34983;BME280;21187;50.976;13.720;2022-08-21T09:46:51;98281.31;;;23.06;58.42
34983;BME280;21187;50.976;13.720;2022-08-21T09:51:55;98283.44;;;23.19;57.79
34983;BME280;21187;50.976;13.720;2022-08-21T09:57:24;98279.97;;;23.31;57.47
34983;BME280;21187;50.976;13.720;2022-08-21T10:02:47;98283.94;;;23.30;57.06
34983;BME280;21187;50.976;13.720;2022-08-21T10:07:49;98287.75;;;23.36;56.39
34983;BME280;21187;50.976;13.720;2022-08-21T10:18:26;98281.34;;;23.39;55.86
34983;BME280;21187;50.976;13.720;2022-08-21T10:23:43;98285.13;;;23.46;55.69
34983;BME280;21187;50.976;13.720;2022-08-21T10:29:07;98288.78;;;23.42;55.19
34983;BME280;21187;50.976;13.720;2022-08-21T10:39:58;98282.69;;;23.48;55.00
34983;BME280;21187;50.976;13.720;2022-08-21T10:45:14;98286.50;;;23.54;54.11
34983;BME280;21187;50.976;13.720;2022-08-21T10:50:30;98286.50;;;23.54;54.15
34983;BME280;21187;50.976;13.720;2022-08-21T10:55:39;98283.00;;;23.66;53.93
34983;BME280;21187;50.976;13.720;2022-08-21T11:00:53;98281.19;;;23.76;53.26
34983;BME280;21187;50.976;13.720;2022-08-21T11:06:06;98286.94;;;23.82;53.37
34983;BME280;21187;50.976;13.720;2022-08-21T11:11:15;98291.59;;;24.01;53.24
34983;BME280;21187;50.976;13.720;2022-08-21T11:26:54;98285.72;;;24.41;51.31
34983;BME280;21187;50.976;13.720;2022-08-21T11:53:30;98266.28;;;25.32;47.98
34983;BME280;21187;50.976;13.720;2022-08-21T11:58:39;98261.06;;;25.47;46.86
34983;BME280;21187;50.976;13.720;2022-08-21T12:09:04;98265.84;;;25.90;46.31
34983;BME280;21187;50.976;13.720;2022-08-21T12:19:10;98265.88;;;26.13;45.16
34983;BME280;21187;50.976;13.720;2022-08-21T12:29:33;98259.38;;;26.38;43.80
34983;BME280;21187;50.976;13.720;2022-08-21T12:34:46;98254.78;;;26.13;43.49
34983;BME280;21187;50.976;13.720;2022-08-21T12:39:52;98263.03;;;26.03;43.15
34983;BME280;21187;50.976;13.720;2022-08-21T12:44:59;98256.59;;;26.06;43.24
34983;BME280;21187;50.976;13.720;2022-08-21T12:50:08;98250.00;;;25.91;44.00
34983;BME280;21187;50.976;13.720;2022-08-21T12:55:14;98246.75;;;25.92;43.97
34983;BME280;21187;50.976;13.720;2022-08-21T13:00:24;98248.50;;;25.99;43.97
34983;BME280;21187;50.976;13.720;2022-08-21T13:05:35;98244.31;;;26.17;43.62
34983;BME280;21187;50.976;13.720;2022-08-21T13:10:40;98242.50;;;26.01;43.38
34983;BME280;21187;50.976;13.720;2022-08-21T13:15:42;98256.66;;;25.94;43.70
34983;BME280;21187;50.976;13.720;2022-08-21T13:20:48;98238.97;;;26.00;43.10
34983;BME280;21187;50.976;13.720;2022-08-21T13:25:53;98236.94;;;25.79;42.29
34983;BME280;21187;50.976;13.720;2022-08-21T13:30:55;98239.34;;;25.89;42.50
34983;BME280;21187;50.976;13.720;2022-08-21T13:41:32;98237.53;;;26.18;41.93
34983;BME280;21187;50.976;13.720;2022-08-21T13:46:36;98236.78;;;26.17;40.87
34983;BME280;21187;50.976;13.720;2022-08-21T13:51:39;98240.56;;;25.88;40.69
34983;BME280;21187;50.976;13.720;2022-08-21T13:56:45;98236.44;;;25.93;41.54
34983;BME280;21187;50.976;13.720;2022-08-21T14:06:53;98236.94;;;26.23;40.76
34983;BME280;21187;50.976;13.720;2022-08-21T14:11:56;98231.09;;;26.30;40.29
34983;BME280;21187;50.976;13.720;2022-08-21T14:17:02;98229.28;;;26.36;40.09
34983;BME280;21187;50.976;13.720;2022-08-21T14:22:30;98223.66;;;26.49;39.28
34983;BME280;21187;50.976;13.720;2022-08-21T14:27:35;98223.69;;;26.58;38.84
34983;BME280;21187;50.976;13.720;2022-08-21T14:32:40;98222.03;;;26.70;38.94
34983;BME280;21187;50.976;13.720;2022-08-21T14:37:47;98223.00;;;26.77;38.50
34983;BME280;21187;50.976;13.720;2022-08-21T14:42:51;98233.09;;;26.61;38.10
34983;BME280;21187;50.976;13.720;2022-08-21T14:47:53;98228.56;;;26.14;37.72
34983;BME280;21187;50.976;13.720;2022-08-21T14:52:55;98239.53;;;25.95;38.33
34983;BME280;21187;50.976;13.720;2022-08-21T14:57:57;98242.63;;;25.97;38.14
34983;BME280;21187;50.976;13.720;2022-08-21T15:02:59;98241.72;;;26.00;38.09
34983;BME280;21187;50.976;13.720;2022-08-21T15:08:02;98231.03;;;26.12;38.33
34983;BME280;21187;50.976;13.720;2022-08-21T15:13:05;98231.94;;;26.08;37.35
34983;BME280;21187;50.976;13.720;2022-08-21T15:18:08;98227.94;;;26.10;37.15
34983;BME280;21187;50.976;13.720;2022-08-21T15:23:11;98231.34;;;26.14;37.08
34983;BME280;21187;50.976;13.720;2022-08-21T15:28:16;98223.03;;;26.14;36.81
34983;BME280;21187;50.976;13.720;2022-08-21T15:33:19;98229.50;;;26.11;37.03
34983;BME280;21187;50.976;13.720;2022-08-21T15:38:21;98228.56;;;26.14;36.60
34983;BME280;21187;50.976;13.720;2022-08-21T15:43:28;98224.44;;;25.96;35.71
34983;BME280;21187;50.976;13.720;2022-08-21T15:48:31;98237.47;;;25.86;36.18
34983;BME280;21187;50.976;13.720;2022-08-21T15:53:33;98226.13;;;25.71;36.14
34983;BME280;21187;50.976;13.720;2022-08-21T15:58:40;98233.81;;;25.67;36.67
34983;BME280;21187;50.976;13.720;2022-08-21T16:03:46;98212.94;;;25.63;36.88
34983;BME280;21187;50.976;13.720;2022-08-21T16:08:49;98228.81;;;25.40;36.97
34983;BME280;21187;50.976;13.720;2022-08-21T16:13:51;98225.38;;;25.23;37.12
34983;BME280;21187;50.976;13.720;2022-08-21T16:18:57;98220.78;;;24.94;38.11
34983;BME280;21187;50.976;13.720;2022-08-21T16:23:59;98229.16;;;24.81;38.35
34983;BME280;21187;50.976;13.720;2022-08-21T16:29:01;98230.81;;;24.79;38.64
34983;BME280;21187;50.976;13.720;2022-08-21T16:34:04;98230.81;;;24.79;38.90
34983;BME280;21187;50.976;13.720;2022-08-21T16:39:06;98227.81;;;24.73;38.87
34983;BME280;21187;50.976;13.720;2022-08-21T16:44:08;98229.72;;;24.63;39.14
34983;BME280;21187;50.976;13.720;2022-08-21T16:49:11;98221.81;;;24.62;39.24
34983;BME280;21187;50.976;13.720;2022-08-21T16:54:13;98222.16;;;24.51;39.37
34983;BME280;21187;50.976;13.720;2022-08-21T16:59:15;98220.50;;;24.40;39.73
34983;BME280;21187;50.976;13.720;2022-08-21T17:04:18;98213.06;;;24.37;39.47
34983;BME280;21187;50.976;13.720;2022-08-21T17:09:21;98212.63;;;24.39;39.87
34983;BME280;21187;50.976;13.720;2022-08-21T17:14:23;98219.38;;;24.51;39.39
34983;BME280;21187;50.976;13.720;2022-08-21T17:19:25;98211.75;;;24.55;39.56
34983;BME280;21187;50.976;13.720;2022-08-21T17:24:27;98213.63;;;24.58;39.64
34983;BME280;21187;50.976;13.720;2022-08-21T17:29:37;98213.28;;;24.56;39.34
34983;BME280;21187;50.976;13.720;2022-08-21T17:34:40;98226.34;;;24.42;39.43
34983;BME280;21187;50.976;13.720;2022-08-21T17:39:42;98221.03;;;24.35;39.60
34983;BME280;21187;50.976;13.720;2022-08-21T17:44:44;98216.59;;;24.25;39.82
34983;BME280;21187;50.976;13.720;2022-08-21T17:49:46;98220.81;;;24.17;40.07
34983;BME280;21187;50.976;13.720;2022-08-21T17:54:48;98221.00;;;24.09;39.89
34983;BME280;21187;50.976;13.720;2022-08-21T17:59:50;98216.34;;;24.06;39.98
34983;BME280;21187;50.976;13.720;2022-08-21T18:04:58;98230.06;;;23.97;40.23
34983;BME280;21187;50.976;13.720;2022-08-21T18:10:02;98220.03;;;23.87;40.39
34983;BME280;21187;50.976;13.720;2022-08-21T18:15:05;98230.75;;;23.72;40.72
34983;BME280;21187;50.976;13.720;2022-08-21T18:20:08;98229.13;;;23.58;40.86
34983;BME280;21187;50.976;13.720;2022-08-21T18:25:11;98227.09;;;23.46;40.93
34983;BME280;21187;50.976;13.720;2022-08-21T18:30:16;98213.75;;;23.27;41.09
34983;BME280;21187;50.976;13.720;2022-08-21T18:35:19;98232.28;;;23.10;41.35
34983;BME280;21187;50.976;13.720;2022-08-21T18:40:21;98233.34;;;23.00;41.32
34983;BME280;21187;50.976;13.720;2022-08-21T18:45:24;98237.31;;;22.99;41.37
34983;BME280;21187;50.976;13.720;2022-08-21T18:50:27;98230.31;;;22.94;41.40
34983;BME280;21187;50.976;13.720;2022-08-21T18:55:30;98236.28;;;22.76;41.57
34983;BME280;21187;50.976;13.720;2022-08-21T19:00:41;98254.91;;;22.56;41.73
34983;BME280;21187;50.976;13.720;2022-08-21T19:05:47;98254.34;;;22.44;41.95
34983;BME280;21187;50.976;13.720;2022-08-21T19:10:51;98252.09;;;22.39;41.64
34983;BME280;21187;50.976;13.720;2022-08-21T19:15:56;98256.47;;;22.37;42.07
34983;BME280;21187;50.976;13.720;2022-08-21T19:20:57;98258.47;;;22.36;42.06
34983;BME280;21187;50.976;13.720;2022-08-21T19:26:02;98257.38;;;22.30;41.98
34983;BME280;21187;50.976;13.720;2022-08-21T19:31:16;98252.38;;;22.25;42.05
34983;BME280;21187;50.976;13.720;2022-08-21T19:36:39;98261.66;;;22.15;42.25
34983;BME280;21187;50.976;13.720;2022-08-21T19:41:48;98256.97;;;22.11;42.34
34983;BME280;21187;50.976;13.720;2022-08-21T19:46:53;98258.69;;;22.05;42.36
34983;BME280;21187;50.976;13.720;2022-08-21T19:51:59;98258.13;;;21.94;42.52
34983;BME280;21187;50.976;13.720;2022-08-21T19:57:03;98258.63;;;21.89;42.50
34983;BME280;21187;50.976;13.720;2022-08-21T20:02:09;98256.00;;;21.82;42.65
34983;BME280;21187;50.976;13.720;2022-08-21T20:07:12;98250.28;;;21.72;42.70
34983;BME280;21187;50.976;13.720;2022-08-21T20:12:14;98249.63;;;21.65;42.74
34983;BME280;21187;50.976;13.720;2022-08-21T20:17:18;98241.31;;;21.44;42.78
34983;BME280;21187;50.976;13.720;2022-08-21T20:22:21;98243.47;;;21.33;43.13
34983;BME280;21187;50.976;13.720;2022-08-21T20:27:26;98237.59;;;21.31;43.31
34983;BME280;21187;50.976;13.720;2022-08-21T20:32:28;98251.38;;;21.07;43.75
34983;BME280;21187;50.976;13.720;2022-08-21T20:37:32;98254.00;;;20.91;43.95
34983;BME280;21187;50.976;13.720;2022-08-21T20:42:40;98247.16;;;20.75;44.41
34983;BME280;21187;50.976;13.720;2022-08-21T20:48:08;98245.31;;;20.65;44.38
34983;BME280;21187;50.976;13.720;2022-08-21T20:53:27;98235.72;;;20.50;44.88
34983;BME280;21187;50.976;13.720;2022-08-21T20:58:52;98238.16;;;20.44;44.78
34983;BME280;21187;50.976;13.720;2022-08-21T21:04:08;98237.06;;;20.38;44.92
34983;BME280;21187;50.976;13.720;2022-08-21T21:09:30;98235.22;;;20.31;45.19
34983;BME280;21187;50.976;13.720;2022-08-21T21:14:44;98235.28;;;20.24;45.29
34983;BME280;21187;50.976;13.720;2022-08-21T21:19:53;98240.16;;;20.13;45.58
34983;BME280;21187;50.976;13.720;2022-08-21T21:25:05;98240.00;;;19.92;46.07
34983;BME280;21187;50.976;13.720;2022-08-21T21:30:20;98234.19;;;19.87;46.34
34983;BME280;21187;50.976;13.720;2022-08-21T21:35:28;98233.44;;;19.83;46.26
34983;BME280;21187;50.976;13.720;2022-08-21T21:51:40;98240.69;;;19.62;46.83
34983;BME280;21187;50.976;13.720;2022-08-21T22:02:28;98242.41;;;19.49;47.27
34983;BME280;21187;50.976;13.720;2022-08-21T22:07:52;98251.13;;;19.40;47.66
34983;BME280;21187;50.976;13.720;2022-08-21T22:18:31;98248.13;;;19.27;47.99
34983;BME280;21187;50.976;13.720;2022-08-21T22:23:47;98247.44;;;19.12;48.43
34983;BME280;21187;50.976;13.720;2022-08-21T22:28:51;98245.97;;;19.00;48.87
34983;BME280;21187;50.976;13.720;2022-08-21T22:39:11;98247.63;;;18.94;48.96
34983;BME280;21187;50.976;13.720;2022-08-21T22:44:25;98247.97;;;18.96;49.28
34983;BME280;21187;50.976;13.720;2022-08-21T22:49:54;98239.81;;;18.85;49.17
34983;BME280;21187;50.976;13.720;2022-08-21T22:55:24;98234.41;;;18.74;49.42
34983;BME280;21187;50.976;13.720;2022-08-21T23:00:57;98235.91;;;18.83;49.06
34983;BME280;21187;50.976;13.720;2022-08-21T23:06:05;98235.16;;;18.78;49.49
34983;BME280;21187;50.976;13.720;2022-08-21T23:11:37;98232.91;;;18.66;49.77
34983;BME280;21187;50.976;13.720;2022-08-21T23:27:31;98240.47;;;18.48;50.41
34983;BME280;21187;50.976;13.720;2022-08-21T23:38:23;98234.72;;;18.17;51.23
34983;BME280;21187;50.976;13.720;2022-08-21T23:59:42;98229.34;;;17.95;51.83
